sensor_id;sensor_type;location;lat;lon;timestamp;pressure;altitude;pressure_sealevel;temperature;humidity
56721;BME280;53183;47.412;18.884;2023-03-20T00:02:05;99238.84;;;9.80;53.29
56721;BME280;53183;47.412;18.884;2023-03-20T00:04:33;99232.53;;;9.67;53.63
56721;BME280;53183;47.412;18.884;2023-03-20T00:07:00;99229.09;;;9.49;54.16
56721;BME280;53183;47.412;18.884;2023-03-20T00:09:27;99228.56;;;9.42;54.37
56721;BME280;53183;47.412;18.884;2023-03-20T00:11:55;99234.59;;;9.44;54.39
56721;BME280;53183;47.412;18.884;2023-03-20T00:14:22;99235.12;;;9.35;54.88
56721;BME280;53183;47.412;18.884;2023-03-20T00:16:51;99230.59;;;9.37;54.88
56721;BME280;53183;47.412;18.884;2023-03-20T00:19:20;99233.84;;;9.42;54.70
56721;BME280;53183;47.412;18.884;2023-03-20T00:21:53;99238.34;;;9.40;54.61
56721;BME280;53183;47.412;18.884;2023-03-20T00:24:21;99241.81;;;9.25;55.09
56721;BME280;53183;47.412;18.884;2023-03-20T00:26:50;99236.22;;;9.13;55.52
56721;BME280;53183;47.412;18.884;2023-03-20T00:29:25;99233.91;;;9.07;55.61
56721;BME280;53183;47.412;18.884;2023-03-20T00:31:54;99235.28;;;9.14;56.49
56721;BME280;53183;47.412;18.884;2023-03-20T00:34:23;99244.09;;;9.31;55.37
56721;BME280;53183;47.412;18.884;2023-03-20T00:36:53;99240.38;;;9.35;55.42
56721;BME280;53183;47.412;18.884;2023-03-20T00:39:21;99229.25;;;9.12;56.14
56721;BME280;53183;47.412;18.884;2023-03-20T00:41:57;99226.94;;;9.06;56.29
56721;BME280;53183;47.412;18.884;2023-03-20T00:44:35;99236.69;;;9.04;56.44
56721;BME280;53183;47.412;18.884;2023-03-20T00:47:16;99238.63;;;9.18;56.99
56721;BME280;53183;47.412;18.884;2023-03-20T00:49:46;99235.28;;;9.14;57.04
56721;BME280;53183;47.412;18.884;2023-03-20T00:52:15;99234.31;;;9.00;57.18
56721;BME280;53183;47.412;18.884;2023-03-20T00:54:43;99233.13;;;8.88;57.29
56721;BME280;53183;47.412;18.884;2023-03-20T00:57:14;99227.62;;;8.75;58.31
56721;BME280;53183;47.412;18.884;2023-03-20T01:02:20;99231.91;;;8.60;59.30
56721;BME280;53183;47.412;18.884;2023-03-20T01:04:49;99232.91;;;8.58;59.68
56721;BME280;53183;47.412;18.884;2023-03-20T01:07:18;99233.75;;;8.58;58.80
56721;BME280;53183;47.412;18.884;2023-03-20T01:09:45;99223.84;;;8.63;58.67
56721;BME280;53183;47.412;18.884;2023-03-20T01:12:13;99226.78;;;8.57;59.17
56721;BME280;53183;47.412;18.884;2023-03-20T01:14:41;99231.59;;;8.49;60.47
56721;BME280;53183;47.412;18.884;2023-03-20T01:17:27;99228.41;;;8.42;60.65
56721;BME280;53183;47.412;18.884;2023-03-20T01:19:55;99230.91;;;8.63;58.75
56721;BME280;53183;47.412;18.884;2023-03-20T01:22:23;99220.91;;;8.69;58.39
56721;BME280;53183;47.412;18.884;2023-03-20T01:24:50;99221.22;;;8.81;57.47
56721;BME280;53183;47.412;18.884;2023-03-20T01:27:18;99224.94;;;8.77;58.35
56721;BME280;53183;47.412;18.884;2023-03-20T01:29:46;99217.56;;;8.83;57.52
56721;BME280;53183;47.412;18.884;2023-03-20T01:32:16;99208.19;;;8.95;57.26
56721;BME280;53183;47.412;18.884;2023-03-20T01:34:44;99204.94;;;8.90;57.26
56721;BME280;53183;47.412;18.884;2023-03-20T01:37:13;99210.44;;;8.85;57.48
56721;BME280;53183;47.412;18.884;2023-03-20T01:39:44;99204.16;;;8.88;57.44
56721;BME280;53183;47.412;18.884;2023-03-20T01:42:15;99205.06;;;9.04;56.75
56721;BME280;53183;47.412;18.884;2023-03-20T01:44:43;99212.81;;;9.07;56.82
56721;BME280;53183;47.412;18.884;2023-03-20T01:47:19;99209.75;;;8.99;56.95
56721;BME280;53183;47.412;18.884;2023-03-20T01:50:20;99204.16;;;9.05;57.11
56721;BME280;53183;47.412;18.884;2023-03-20T01:53:04;99206.47;;;9.11;57.28
56721;BME280;53183;47.412;18.884;2023-03-20T01:55:37;99210.50;;;9.01;57.55
56721;BME280;53183;47.412;18.884;2023-03-20T01:58:18;99206.47;;;9.11;57.17
56721;BME280;53183;47.412;18.884;2023-03-20T02:00:48;99198.59;;;9.27;56.65
56721;BME280;53183;47.412;18.884;2023-03-20T02:03:17;99195.25;;;9.24;56.70
56721;BME280;53183;47.412;18.884;2023-03-20T02:05:47;99192.25;;;9.14;57.17
56721;BME280;53183;47.412;18.884;2023-03-20T02:10:45;99200.47;;;9.08;56.95
56721;BME280;53183;47.412;18.884;2023-03-20T02:13:14;99196.78;;;9.12;57.10
56721;BME280;53183;47.412;18.884;2023-03-20T02:16:13;99195.84;;;9.13;56.98
56721;BME280;53183;47.412;18.884;2023-03-20T02:18:47;99197.47;;;9.15;56.91
56721;BME280;53183;47.412;18.884;2023-03-20T02:24:14;99189.66;;;9.30;56.56
56721;BME280;53183;47.412;18.884;2023-03-20T02:26:56;99187.66;;;9.18;57.00
56721;BME280;53183;47.412;18.884;2023-03-20T02:49:18;99172.97;;;8.63;58.63
56721;BME280;53183;47.412;18.884;2023-03-20T02:52:08;99176.81;;;8.38;59.52
56721;BME280;53183;47.412;18.884;2023-03-20T02:54:53;99178.56;;;8.20;60.12
56721;BME280;53183;47.412;18.884;2023-03-20T02:57:29;99189.06;;;8.03;60.48
56721;BME280;53183;47.412;18.884;2023-03-20T03:00:12;99184.22;;;7.94;60.90
56721;BME280;53183;47.412;18.884;2023-03-20T03:02:46;99187.28;;;7.85;61.29
56721;BME280;53183;47.412;18.884;2023-03-20T03:05:20;99184.59;;;7.67;61.97
56721;BME280;53183;47.412;18.884;2023-03-20T03:07:50;99195.69;;;7.55;62.54
56721;BME280;53183;47.412;18.884;2023-03-20T03:10:29;99188.16;;;7.47;62.74
56721;BME280;53183;47.412;18.884;2023-03-20T03:13:00;99192.56;;;7.47;62.89
56721;BME280;53183;47.412;18.884;2023-03-20T03:15:36;99191.78;;;7.45;63.38
56721;BME280;53183;47.412;18.884;2023-03-20T03:18:09;99203.63;;;7.35;63.58
56721;BME280;53183;47.412;18.884;2023-03-20T03:20:38;99204.03;;;7.25;63.77
56721;BME280;53183;47.412;18.884;2023-03-20T03:23:06;99206.19;;;7.17;63.95
56721;BME280;53183;47.412;18.884;2023-03-20T03:25:37;99204.72;;;7.10;64.04
56721;BME280;53183;47.412;18.884;2023-03-20T03:28:29;99206.72;;;7.05;64.39
56721;BME280;53183;47.412;18.884;2023-03-20T03:31:06;99199.91;;;7.01;64.74
56721;BME280;53183;47.412;18.884;2023-03-20T03:33:37;99190.94;;;7.05;64.92
56721;BME280;53183;47.412;18.884;2023-03-20T03:36:27;99197.06;;;7.05;64.88
56721;BME280;53183;47.412;18.884;2023-03-20T03:39:26;99194.22;;;6.90;65.27
56721;BME280;53183;47.412;18.884;2023-03-20T03:45:07;99196.66;;;6.74;66.03
56721;BME280;53183;47.412;18.884;2023-03-20T03:47:52;99199.69;;;6.85;66.13
56721;BME280;53183;47.412;18.884;2023-03-20T03:50:24;99208.81;;;6.76;66.40
56721;BME280;53183;47.412;18.884;2023-03-20T03:52:55;99215.63;;;6.60;67.12
56721;BME280;53183;47.412;18.884;2023-03-20T03:55:36;99216.22;;;6.46;68.14
56721;BME280;53183;47.412;18.884;2023-03-20T03:58:44;99216.72;;;6.34;69.03
56721;BME280;53183;47.412;18.884;2023-03-20T04:01:14;99215.19;;;6.28;68.97
56721;BME280;53183;47.412;18.884;2023-03-20T04:03:52;99221.69;;;6.20;69.20
56721;BME280;53183;47.412;18.884;2023-03-20T04:06:20;99213.84;;;6.18;69.49
56721;BME280;53183;47.412;18.884;2023-03-20T04:08:49;99215.69;;;6.16;69.87
56721;BME280;53183;47.412;18.884;2023-03-20T04:11:21;99213.56;;;6.26;69.52
56721;BME280;53183;47.412;18.884;2023-03-20T04:13:50;99221.00;;;6.15;69.93
56721;BME280;53183;47.412;18.884;2023-03-20T04:16:20;99218.69;;;6.07;70.33
56721;BME280;53183;47.412;18.884;2023-03-20T04:18:48;99222.16;;;6.07;70.59
56721;BME280;53183;47.412;18.884;2023-03-20T04:21:16;99216.66;;;6.14;70.48
56721;BME280;53183;47.412;18.884;2023-03-20T04:23:44;99224.47;;;6.15;70.56
56721;BME280;53183;47.412;18.884;2023-03-20T04:26:12;99224.28;;;5.98;71.20
56721;BME280;53183;47.412;18.884;2023-03-20T04:28:39;99226.13;;;5.96;71.48
56721;BME280;53183;47.412;18.884;2023-03-20T04:31:09;99228.22;;;5.86;71.83
56721;BME280;53183;47.412;18.884;2023-03-20T04:33:36;99230.16;;;5.81;71.85
56721;BME280;53183;47.412;18.884;2023-03-20T04:36:04;99230.28;;;5.78;72.12
56721;BME280;53183;47.412;18.884;2023-03-20T04:38:32;99224.06;;;5.80;72.36
56721;BME280;53183;47.412;18.884;2023-03-20T04:41:00;99222.25;;;5.82;72.16
56721;BME280;53183;47.412;18.884;2023-03-20T04:43:27;99221.09;;;5.90;71.79
56721;BME280;53183;47.412;18.884;2023-03-20T04:45:57;99220.47;;;5.83;72.02
56721;BME280;53183;47.412;18.884;2023-03-20T04:48:25;99216.25;;;5.79;72.19
56721;BME280;53183;47.412;18.884;2023-03-20T04:50:53;99218.38;;;5.93;71.33
56721;BME280;53183;47.412;18.884;2023-03-20T04:53:22;99215.69;;;5.94;71.03
56721;BME280;53183;47.412;18.884;2023-03-20T04:55:53;99220.28;;;5.87;71.13
56721;BME280;53183;47.412;18.884;2023-03-20T04:58:21;99224.81;;;5.84;71.24
56721;BME280;53183;47.412;18.884;2023-03-20T05:00:49;99224.88;;;5.82;71.38
56721;BME280;53183;47.412;18.884;2023-03-20T05:03:16;99225.66;;;5.84;71.31
56721;BME280;53183;47.412;18.884;2023-03-20T05:05:44;99229.00;;;5.88;71.46
56721;BME280;53183;47.412;18.884;2023-03-20T05:08:11;99229.53;;;5.98;71.17
56721;BME280;53183;47.412;18.884;2023-03-20T05:10:39;99232.13;;;5.99;70.97
56721;BME280;53183;47.412;18.884;2023-03-20T05:13:07;99238.09;;;6.03;71.00
56721;BME280;53183;47.412;18.884;2023-03-20T05:15:34;99241.97;;;6.15;70.82
56721;BME280;53183;47.412;18.884;2023-03-20T05:18:02;99244.59;;;6.15;70.79
56721;BME280;53183;47.412;18.884;2023-03-20T05:20:30;99245.41;;;6.17;70.83
56721;BME280;53183;47.412;18.884;2023-03-20T05:22:59;99255.59;;;6.24;70.58
56721;BME280;53183;47.412;18.884;2023-03-20T05:25:27;99256.31;;;6.28;70.49
56721;BME280;53183;47.412;18.884;2023-03-20T05:27:54;99255.09;;;6.37;70.14
56721;BME280;53183;47.412;18.884;2023-03-20T05:30:22;99251.16;;;6.48;69.58
56721;BME280;53183;47.412;18.884;2023-03-20T05:32:50;99247.16;;;6.60;68.81
56721;BME280;53183;47.412;18.884;2023-03-20T05:35:18;99253.72;;;6.70;67.82
56721;BME280;53183;47.412;18.884;2023-03-20T05:37:46;99252.88;;;7.11;65.72
56721;BME280;53183;47.412;18.884;2023-03-20T05:40:15;99256.72;;;7.43;63.87
56721;BME280;53183;47.412;18.884;2023-03-20T05:42:43;99253.94;;;7.46;64.04
56721;BME280;53183;47.412;18.884;2023-03-20T05:45:11;99254.13;;;7.62;62.48
56721;BME280;53183;47.412;18.884;2023-03-20T05:47:39;99259.53;;;7.78;61.93
56721;BME280;53183;47.412;18.884;2023-03-20T05:50:11;99268.72;;;7.88;61.44
56721;BME280;53183;47.412;18.884;2023-03-20T05:52:39;99262.50;;;7.89;61.61
56721;BME280;53183;47.412;18.884;2023-03-20T05:55:06;99266.56;;;7.96;61.26
56721;BME280;53183;47.412;18.884;2023-03-20T05:57:34;99270.50;;;8.06;60.53
56721;BME280;53183;47.412;18.884;2023-03-20T06:00:02;99267.91;;;8.23;59.86
56721;BME280;53183;47.412;18.884;2023-03-20T06:02:33;99269.47;;;8.47;59.07
56721;BME280;53183;47.412;18.884;2023-03-20T06:05:04;99268.50;;;8.84;57.68
56721;BME280;53183;47.412;18.884;2023-03-20T06:07:33;99270.09;;;9.21;56.08
56721;BME280;53183;47.412;18.884;2023-03-20T06:10:00;99275.09;;;9.43;55.52
56721;BME280;53183;47.412;18.884;2023-03-20T06:12:28;99280.78;;;9.69;53.92
56721;BME280;53183;47.412;18.884;2023-03-20T06:14:55;99275.63;;;9.83;54.12
56721;BME280;53183;47.412;18.884;2023-03-20T06:17:23;99278.91;;;10.04;53.95
56721;BME280;53183;47.412;18.884;2023-03-20T06:19:51;99280.78;;;10.18;52.96
56721;BME280;53183;47.412;18.884;2023-03-20T06:22:18;99277.03;;;10.38;52.23
56721;BME280;53183;47.412;18.884;2023-03-20T06:24:45;99278.91;;;10.51;51.90
56721;BME280;53183;47.412;18.884;2023-03-20T06:27:13;99277.75;;;10.71;50.42
56721;BME280;53183;47.412;18.884;2023-03-20T06:29:40;99271.59;;;10.87;50.41
56721;BME280;53183;47.412;18.884;2023-03-20T06:32:09;99272.03;;;11.23;48.85
56721;BME280;53183;47.412;18.884;2023-03-20T06:34:38;99292.19;;;11.55;48.21
56721;BME280;53183;47.412;18.884;2023-03-20T06:37:06;99292.06;;;11.86;47.68
56721;BME280;53183;47.412;18.884;2023-03-20T06:39:33;99285.00;;;12.14;46.02
56721;BME280;53183;47.412;18.884;2023-03-20T06:42:01;99285.00;;;12.28;45.51
56721;BME280;53183;47.412;18.884;2023-03-20T06:44:28;99292.06;;;12.42;45.44
56721;BME280;53183;47.412;18.884;2023-03-20T06:46:56;99289.88;;;12.49;44.93
56721;BME280;53183;47.412;18.884;2023-03-20T06:49:24;99287.50;;;12.71;45.28
56721;BME280;53183;47.412;18.884;2023-03-20T06:51:52;99275.81;;;13.01;43.62
56721;BME280;53183;47.412;18.884;2023-03-20T06:54:21;99278.53;;;13.52;43.22
56721;BME280;53183;47.412;18.884;2023-03-20T06:56:50;99280.00;;;14.31;41.60
56721;BME280;53183;47.412;18.884;2023-03-20T06:59:17;99289.88;;;14.78;40.91
56721;BME280;53183;47.412;18.884;2023-03-20T07:01:45;99288.41;;;15.10;40.35
56721;BME280;53183;47.412;18.884;2023-03-20T07:04:12;99295.75;;;15.41;39.08
56721;BME280;53183;47.412;18.884;2023-03-20T07:06:41;99291.09;;;16.01;37.94
56721;BME280;53183;47.412;18.884;2023-03-20T07:09:09;99302.16;;;15.97;38.31
56721;BME280;53183;47.412;18.884;2023-03-20T07:11:36;99290.63;;;16.07;37.19
56721;BME280;53183;47.412;18.884;2023-03-20T07:14:04;99302.50;;;16.26;36.73
56721;BME280;53183;47.412;18.884;2023-03-20T07:16:33;99300.50;;;16.50;36.89
56721;BME280;53183;47.412;18.884;2023-03-20T07:19:01;99306.28;;;16.67;35.95
56721;BME280;53183;47.412;18.884;2023-03-20T07:21:32;99309.28;;;16.84;35.29
56721;BME280;53183;47.412;18.884;2023-03-20T07:23:59;99306.50;;;16.86;34.92
56721;BME280;53183;47.412;18.884;2023-03-20T07:26:27;99304.34;;;16.80;35.50
56721;BME280;53183;47.412;18.884;2023-03-20T07:28:55;99303.16;;;16.50;35.95
56721;BME280;53183;47.412;18.884;2023-03-20T07:31:24;99304.59;;;16.54;35.70
56721;BME280;53183;47.412;18.884;2023-03-20T07:33:52;99307.31;;;16.43;36.49
56721;BME280;53183;47.412;18.884;2023-03-20T07:36:20;99299.97;;;15.90;36.83
56721;BME280;53183;47.412;18.884;2023-03-20T07:38:48;99300.75;;;16.47;35.86
56721;BME280;53183;47.412;18.884;2023-03-20T07:41:16;99302.25;;;16.83;35.64
56721;BME280;53183;47.412;18.884;2023-03-20T07:43:44;99293.00;;;16.87;35.46
56721;BME280;53183;47.412;18.884;2023-03-20T07:46:16;99305.91;;;16.82;35.56
56721;BME280;53183;47.412;18.884;2023-03-20T07:48:43;99308.22;;;16.64;35.41
56721;BME280;53183;47.412;18.884;2023-03-20T07:51:11;99310.84;;;16.87;35.55
56721;BME280;53183;47.412;18.884;2023-03-20T07:53:38;99311.28;;;17.03;34.80
56721;BME280;53183;47.412;18.884;2023-03-20T07:56:05;99305.34;;;17.00;34.94
56721;BME280;53183;47.412;18.884;2023-03-20T07:58:33;99310.50;;;17.12;35.03
56721;BME280;53183;47.412;18.884;2023-03-20T08:01:00;99318.94;;;17.29;34.66
56721;BME280;53183;47.412;18.884;2023-03-20T08:03:29;99312.38;;;17.54;33.92
56721;BME280;53183;47.412;18.884;2023-03-20T08:05:56;99312.44;;;17.73;34.26
56721;BME280;53183;47.412;18.884;2023-03-20T08:08:24;99311.28;;;17.66;34.31
56721;BME280;53183;47.412;18.884;2023-03-20T08:10:51;99311.25;;;17.77;33.76
56721;BME280;53183;47.412;18.884;2023-03-20T08:13:18;99313.94;;;17.77;34.24
56721;BME280;53183;47.412;18.884;2023-03-20T08:15:46;99317.34;;;17.89;33.30
56721;BME280;53183;47.412;18.884;2023-03-20T08:18:13;99317.91;;;18.14;33.12
56721;BME280;53183;47.412;18.884;2023-03-20T08:20:41;99312.16;;;17.88;33.36
56721;BME280;53183;47.412;18.884;2023-03-20T08:23:08;99313.03;;;17.98;33.63
56721;BME280;53183;47.412;18.884;2023-03-20T08:25:35;99313.75;;;18.40;33.01
56721;BME280;53183;47.412;18.884;2023-03-20T08:28:03;99314.34;;;18.54;33.18
56721;BME280;53183;47.412;18.884;2023-03-20T08:30:30;99317.81;;;18.35;33.25
56721;BME280;53183;47.412;18.884;2023-03-20T08:32:57;99316.31;;;18.51;33.48
56721;BME280;53183;47.412;18.884;2023-03-20T08:35:25;99314.75;;;18.49;32.53
56721;BME280;53183;47.412;18.884;2023-03-20T08:38:12;99318.47;;;18.17;33.70
56721;BME280;53183;47.412;18.884;2023-03-20T08:40:40;99313.28;;;18.25;33.09
56721;BME280;53183;47.412;18.884;2023-03-20T08:43:08;99317.63;;;18.17;33.30
56721;BME280;53183;47.412;18.884;2023-03-20T08:45:35;99310.62;;;18.35;33.27
56721;BME280;53183;47.412;18.884;2023-03-20T08:48:03;99316.13;;;18.03;34.24
56721;BME280;53183;47.412;18.884;2023-03-20T08:50:30;99319.16;;;18.19;34.09
56721;BME280;53183;47.412;18.884;2023-03-20T08:52:58;99326.00;;;18.02;34.39
56721;BME280;53183;47.412;18.884;2023-03-20T08:55:25;99335.00;;;18.01;34.59
56721;BME280;53183;47.412;18.884;2023-03-20T08:57:52;99325.25;;;18.21;33.89
56721;BME280;53183;47.412;18.884;2023-03-20T09:00:20;99327.06;;;18.21;34.26
56721;BME280;53183;47.412;18.884;2023-03-20T09:02:48;99333.06;;;17.83;34.90
56721;BME280;53183;47.412;18.884;2023-03-20T09:05:16;99336.00;;;17.79;34.35
56721;BME280;53183;47.412;18.884;2023-03-20T09:07:44;99339.00;;;17.86;34.50
56721;BME280;53183;47.412;18.884;2023-03-20T09:10:11;99336.31;;;18.07;33.88
56721;BME280;53183;47.412;18.884;2023-03-20T09:12:38;99330.69;;;18.10;33.96
56721;BME280;53183;47.412;18.884;2023-03-20T09:15:06;99332.56;;;17.89;34.66
56721;BME280;53183;47.412;18.884;2023-03-20T09:17:34;99341.62;;;17.76;35.47
56721;BME280;53183;47.412;18.884;2023-03-20T09:20:01;99336.78;;;17.70;36.89
56721;BME280;53183;47.412;18.884;2023-03-20T09:22:29;99341.69;;;17.86;35.88
56721;BME280;53183;47.412;18.884;2023-03-20T09:24:56;99341.56;;;17.88;35.14
56721;BME280;53183;47.412;18.884;2023-03-20T09:27:23;99333.34;;;17.79;35.40
56721;BME280;53183;47.412;18.884;2023-03-20T09:29:51;99340.78;;;17.55;35.80
56721;BME280;53183;47.412;18.884;2023-03-20T09:32:18;99340.16;;;17.72;35.82
56721;BME280;53183;47.412;18.884;2023-03-20T09:34:46;99341.66;;;17.65;35.13
56721;BME280;53183;47.412;18.884;2023-03-20T09:37:13;99337.94;;;17.56;35.41
56721;BME280;53183;47.412;18.884;2023-03-20T09:39:40;99335.41;;;17.76;35.69
56721;BME280;53183;47.412;18.884;2023-03-20T09:45:04;99334.38;;;17.88;35.39
56721;BME280;53183;47.412;18.884;2023-03-20T09:47:46;99336.22;;;18.18;35.78
56721;BME280;53183;47.412;18.884;2023-03-20T09:50:35;99336.78;;;18.22;34.81
56721;BME280;53183;47.412;18.884;2023-03-20T09:53:20;99334.41;;;18.28;34.36
56721;BME280;53183;47.412;18.884;2023-03-20T09:55:52;99344.25;;;18.68;34.37
56721;BME280;53183;47.412;18.884;2023-03-20T09:58:29;99343.66;;;18.55;33.88
56721;BME280;53183;47.412;18.884;2023-03-20T10:00:59;99338.03;;;18.18;34.76
56721;BME280;53183;47.412;18.884;2023-03-20T10:03:57;99339.50;;;18.01;35.01
56721;BME280;53183;47.412;18.884;2023-03-20T10:06:24;99328.88;;;18.11;34.90
56721;BME280;53183;47.412;18.884;2023-03-20T10:08:52;99331.66;;;18.09;34.38
56721;BME280;53183;47.412;18.884;2023-03-20T10:17:16;99330.97;;;18.07;34.87
56721;BME280;53183;47.412;18.884;2023-03-20T10:19:46;99331.03;;;17.96;34.44
56721;BME280;53183;47.412;18.884;2023-03-20T10:24:56;99336.03;;;18.10;34.27
56721;BME280;53183;47.412;18.884;2023-03-20T10:27:29;99328.56;;;18.54;34.39
56721;BME280;53183;47.412;18.884;2023-03-20T10:30:25;99325.97;;;18.73;34.08
56721;BME280;53183;47.412;18.884;2023-03-20T10:41:13;99326.34;;;18.59;34.15
56721;BME280;53183;47.412;18.884;2023-03-20T10:43:43;99314.22;;;18.15;34.43
56721;BME280;53183;47.412;18.884;2023-03-20T10:51:22;99315.91;;;18.16;34.07
56721;BME280;53183;47.412;18.884;2023-03-20T10:53:54;99328.50;;;17.94;35.03
56721;BME280;53183;47.412;18.884;2023-03-20T10:56:30;99313.66;;;18.11;34.58
56721;BME280;53183;47.412;18.884;2023-03-20T10:59:06;99309.50;;;18.28;34.36
56721;BME280;53183;47.412;18.884;2023-03-20T11:01:35;99309.53;;;18.38;34.63
56721;BME280;53183;47.412;18.884;2023-03-20T11:04:02;99311.72;;;18.13;34.90
56721;BME280;53183;47.412;18.884;2023-03-20T11:06:39;99304.88;;;17.99;34.90
56721;BME280;53183;47.412;18.884;2023-03-20T11:09:23;99304.00;;;17.68;35.41
56721;BME280;53183;47.412;18.884;2023-03-20T11:11:56;99303.94;;;17.79;35.63
56721;BME280;53183;47.412;18.884;2023-03-20T11:14:27;99308.91;;;17.84;35.30
56721;BME280;53183;47.412;18.884;2023-03-20T11:17:01;99302.38;;;18.08;35.49
56721;BME280;53183;47.412;18.884;2023-03-20T11:19:35;99293.47;;;17.97;35.29
56721;BME280;53183;47.412;18.884;2023-03-20T11:22:23;99296.50;;;17.83;35.73
56721;BME280;53183;47.412;18.884;2023-03-20T11:24:58;99287.63;;;17.83;35.44
56721;BME280;53183;47.412;18.884;2023-03-20T11:27:30;99303.91;;;18.00;35.38
56721;BME280;53183;47.412;18.884;2023-03-20T11:30:01;99295.75;;;18.02;35.82
56721;BME280;53183;47.412;18.884;2023-03-20T11:37:48;99286.31;;;17.98;35.28
56721;BME280;53183;47.412;18.884;2023-03-20T11:40:31;99283.03;;;17.64;35.15
56721;BME280;53183;47.412;18.884;2023-03-20T11:45:33;99283.53;;;18.09;35.20
56721;BME280;53183;47.412;18.884;2023-03-20T11:48:02;99292.72;;;17.65;35.30
56721;BME280;53183;47.412;18.884;2023-03-20T11:53:03;99291.16;;;17.83;35.01
56721;BME280;53183;47.412;18.884;2023-03-20T11:55:43;99289.66;;;17.90;35.20
56721;BME280;53183;47.412;18.884;2023-03-20T11:58:15;99288.38;;;17.73;35.29
56721;BME280;53183;47.412;18.884;2023-03-20T12:00:48;99294.09;;;17.80;35.51
56721;BME280;53183;47.412;18.884;2023-03-20T12:03:38;99291.09;;;17.52;35.48
56721;BME280;53183;47.412;18.884;2023-03-20T12:06:14;99288.69;;;17.49;35.88
56721;BME280;53183;47.412;18.884;2023-03-20T12:08:46;99285.03;;;17.50;36.28
56721;BME280;53183;47.412;18.884;2023-03-20T12:11:39;99279.63;;;17.20;36.62
56721;BME280;53183;47.412;18.884;2023-03-20T12:14:17;99279.25;;;17.45;36.68
56721;BME280;53183;47.412;18.884;2023-03-20T12:16:50;99276.75;;;17.53;36.30
56721;BME280;53183;47.412;18.884;2023-03-20T12:19:30;99271.25;;;17.45;35.98
56721;BME280;53183;47.412;18.884;2023-03-20T12:22:23;99273.62;;;17.27;36.99
56721;BME280;53183;47.412;18.884;2023-03-20T12:25:30;99267.72;;;17.45;36.68
56721;BME280;53183;47.412;18.884;2023-03-20T12:28:13;99265.38;;;17.51;36.96
56721;BME280;53183;47.412;18.884;2023-03-20T12:36:33;99264.03;;;17.67;36.29
56721;BME280;53183;47.412;18.884;2023-03-20T12:39:02;99255.59;;;17.92;35.87
56721;BME280;53183;47.412;18.884;2023-03-20T12:44:38;99258.56;;;17.68;36.72
56721;BME280;53183;47.412;18.884;2023-03-20T12:52:44;99255.31;;;17.44;37.00
56721;BME280;53183;47.412;18.884;2023-03-20T12:55:27;99251.12;;;17.72;36.14
56721;BME280;53183;47.412;18.884;2023-03-20T13:00:42;99234.47;;;17.89;36.13
56721;BME280;53183;47.412;18.884;2023-03-20T13:03:23;99236.78;;;17.73;36.34
56721;BME280;53183;47.412;18.884;2023-03-20T13:11:43;99225.72;;;17.56;37.28
56721;BME280;53183;47.412;18.884;2023-03-20T13:14:22;99230.28;;;17.66;37.32
56721;BME280;53183;47.412;18.884;2023-03-20T13:17:15;99224.09;;;17.65;37.49
56721;BME280;53183;47.412;18.884;2023-03-20T13:19:50;99221.06;;;17.79;37.13
56721;BME280;53183;47.412;18.884;2023-03-20T13:22:31;99214.19;;;17.25;37.82
56721;BME280;53183;47.412;18.884;2023-03-20T13:30:44;99216.78;;;17.67;37.73
56721;BME280;53183;47.412;18.884;2023-03-20T13:36:19;99204.34;;;17.56;38.55
56721;BME280;53183;47.412;18.884;2023-03-20T13:38:58;99209.34;;;17.71;38.09
56721;BME280;53183;47.412;18.884;2023-03-20T13:41:26;99204.38;;;17.66;37.99
56721;BME280;53183;47.412;18.884;2023-03-20T13:44:02;99210.47;;;17.68;37.65
56721;BME280;53183;47.412;18.884;2023-03-20T13:46:44;99199.19;;;17.65;38.03
56721;BME280;53183;47.412;18.884;2023-03-20T13:49:52;99199.00;;;17.56;37.88
56721;BME280;53183;47.412;18.884;2023-03-20T13:52:28;99207.13;;;17.45;38.75
56721;BME280;53183;47.412;18.884;2023-03-20T13:57:57;99203.94;;;17.30;38.96
56721;BME280;53183;47.412;18.884;2023-03-20T14:00:45;99208.09;;;17.44;39.16
56721;BME280;53183;47.412;18.884;2023-03-20T14:03:17;99205.50;;;17.54;38.76
56721;BME280;53183;47.412;18.884;2023-03-20T14:05:46;99199.06;;;17.35;39.06
56721;BME280;53183;47.412;18.884;2023-03-20T14:08:29;99210.06;;;17.42;39.11
56721;BME280;53183;47.412;18.884;2023-03-20T14:11:29;99191.53;;;17.50;39.12
56721;BME280;53183;47.412;18.884;2023-03-20T14:14:12;99201.72;;;17.35;39.45
56721;BME280;53183;47.412;18.884;2023-03-20T14:16:41;99204.62;;;17.53;39.30
56721;BME280;53183;47.412;18.884;2023-03-20T14:19:23;99196.84;;;17.41;39.71
56721;BME280;53183;47.412;18.884;2023-03-20T14:21:55;99197.25;;;17.15;40.01
56721;BME280;53183;47.412;18.884;2023-03-20T14:24:23;99198.56;;;17.00;40.52
56721;BME280;53183;47.412;18.884;2023-03-20T14:26:57;99192.25;;;17.22;40.59
56721;BME280;53183;47.412;18.884;2023-03-20T14:32:21;99192.13;;;17.54;39.96
56721;BME280;53183;47.412;18.884;2023-03-20T14:34:52;99190.91;;;17.37;40.60
56721;BME280;53183;47.412;18.884;2023-03-20T14:37:55;99195.09;;;17.30;40.84
56721;BME280;53183;47.412;18.884;2023-03-20T14:40:28;99193.44;;;17.08;40.80
56721;BME280;53183;47.412;18.884;2023-03-20T14:43:05;99193.28;;;17.09;41.39
56721;BME280;53183;47.412;18.884;2023-03-20T14:45:42;99185.72;;;16.94;41.86
56721;BME280;53183;47.412;18.884;2023-03-20T14:48:30;99184.78;;;16.95;42.11
56721;BME280;53183;47.412;18.884;2023-03-20T14:51:23;99186.63;;;17.04;41.97
56721;BME280;53183;47.412;18.884;2023-03-20T14:56:42;99191.19;;;17.13;41.84
56721;BME280;53183;47.412;18.884;2023-03-20T14:59:11;99192.75;;;17.16;41.99
56721;BME280;53183;47.412;18.884;2023-03-20T15:04:31;99179.34;;;17.06;42.24
56721;BME280;53183;47.412;18.884;2023-03-20T15:07:02;99179.00;;;17.20;42.60
56721;BME280;53183;47.412;18.884;2023-03-20T15:09:34;99179.69;;;16.92;42.26
56721;BME280;53183;47.412;18.884;2023-03-20T15:12:03;99179.88;;;16.68;42.84